sensor_id;sensor_type;location;lat;lon;timestamp;pressure;altitude;pressure_sealevel;temperature;humidity
19150;BME280;9707;49.158;8.632;2023-04-25T00:00:31;99808.00;;;21.37;36.69
19150;BME280;9707;49.158;8.632;2023-04-25T00:02:56;99800.03;;;21.35;36.66
19150;BME280;9707;49.158;8.632;2023-04-25T00:05:22;99810.88;;;21.35;36.83
19150;BME280;9707;49.158;8.632;2023-04-25T00:07:48;99810.00;;;21.35;36.68
19150;BME280;9707;49.158;8.632;2023-04-25T00:10:13;99809.00;;;21.36;36.55
19150;BME280;9707;49.158;8.632;2023-04-25T00:12:39;99817.13;;;21.36;36.86
19150;BME280;9707;49.158;8.632;2023-04-25T00:15:05;99819.84;;;21.36;36.84
19150;BME280;9707;49.158;8.632;2023-04-25T00:17:31;99814.41;;;21.36;36.79
19150;BME280;9707;49.158;8.632;2023-04-25T00:19:56;99818.13;;;21.35;36.98
19150;BME280;9707;49.158;8.632;2023-04-25T00:22:23;99817.25;;;21.34;36.81
19150;BME280;9707;49.158;8.632;2023-04-25T00:24:48;99819.13;;;21.34;36.94
19150;BME280;9707;49.158;8.632;2023-04-25T06:33:12;99824.84;;;20.52;38.09
19150;BME280;9707;49.158;8.632;2023-04-25T06:35:37;99820.84;;;20.56;37.53
19150;BME280;9707;49.158;8.632;2023-04-25T06:38:02;99824.16;;;20.59;37.38
19150;BME280;9707;49.158;8.632;2023-04-25T06:40:27;99820.34;;;20.62;37.05
19150;BME280;9707;49.158;8.632;2023-04-25T06:42:53;99818.34;;;20.64;37.18
19150;BME280;9707;49.158;8.632;2023-04-25T06:45:18;99821.75;;;20.66;36.94
19150;BME280;9707;49.158;8.632;2023-04-25T06:47:43;99830.59;;;20.68;36.82
19150;BME280;9707;49.158;8.632;2023-04-25T06:50:09;99821.75;;;20.66;36.94
19150;BME280;9707;49.158;8.632;2023-04-25T06:52:34;99828.03;;;20.66;37.20
19150;BME280;9707;49.158;8.632;2023-04-25T06:54:59;99825.19;;;20.68;37.33
19150;BME280;9707;49.158;8.632;2023-04-25T06:57:25;99832.19;;;20.70;37.52
19150;BME280;9707;49.158;8.632;2023-04-25T06:59:50;99833.75;;;20.73;37.40
19150;BME280;9707;49.158;8.632;2023-04-25T07:02:15;99832.63;;;20.75;37.31
19150;BME280;9707;49.158;8.632;2023-04-25T07:04:41;99840.63;;;20.77;36.99
19150;BME280;9707;49.158;8.632;2023-04-25T07:07:06;99840.47;;;20.78;37.17
19150;BME280;9707;49.158;8.632;2023-04-25T07:09:31;99829.50;;;20.80;36.88
19150;BME280;9707;49.158;8.632;2023-04-25T07:11:59;99830.50;;;20.79;37.17
19150;BME280;9707;49.158;8.632;2023-04-25T07:14:26;99828.66;;;20.79;36.76
19150;BME280;9707;49.158;8.632;2023-04-25T07:16:51;99833.22;;;20.79;36.57
19150;BME280;9707;49.158;8.632;2023-04-25T07:19:16;99832.34;;;20.78;36.70
19150;BME280;9707;49.158;8.632;2023-04-25T07:21:41;99832.34;;;20.78;36.61
19150;BME280;9707;49.158;8.632;2023-04-25T07:24:07;99838.63;;;20.79;36.52
19150;BME280;9707;49.158;8.632;2023-04-25T07:26:32;99838.63;;;20.79;36.71
19150;BME280;9707;49.158;8.632;2023-04-25T07:28:58;99838.88;;;20.76;36.67
19150;BME280;9707;49.158;8.632;2023-04-25T07:31:23;99833.63;;;20.74;36.59
19150;BME280;9707;49.158;8.632;2023-04-25T07:33:49;99838.31;;;20.72;36.74
19150;BME280;9707;49.158;8.632;2023-04-25T07:36:14;99832.75;;;20.74;37.15
19150;BME280;9707;49.158;8.632;2023-04-25T07:38:40;99837.03;;;20.76;37.26
19150;BME280;9707;49.158;8.632;2023-04-25T07:41:06;99838.63;;;20.79;37.06
19150;BME280;9707;49.158;8.632;2023-04-25T07:43:31;99850.03;;;20.82;36.97
19150;BME280;9707;49.158;8.632;2023-04-25T07:45:57;99848.91;;;20.85;36.89
19150;BME280;9707;49.158;8.632;2023-04-25T07:48:22;99852.34;;;20.87;36.64
19150;BME280;9707;49.158;8.632;2023-04-25T07:50:47;99850.34;;;20.89;37.21
19150;BME280;9707;49.158;8.632;2023-04-25T07:53:13;99852.94;;;20.90;36.97
19150;BME280;9707;49.158;8.632;2023-04-25T07:55:38;99856.22;;;20.94;36.87
19150;BME280;9707;49.158;8.632;2023-04-25T07:58:06;99861.38;;;20.97;36.90
19150;BME280;9707;49.158;8.632;2023-04-25T08:00:31;99863.09;;;20.98;36.72
19150;BME280;9707;49.158;8.632;2023-04-25T08:02:56;99871.94;;;21.00;36.85
19150;BME280;9707;49.158;8.632;2023-04-25T08:05:21;99865.50;;;21.01;36.56
19150;BME280;9707;49.158;8.632;2023-04-25T08:07:47;99875.38;;;21.02;36.98
19150;BME280;9707;49.158;8.632;2023-04-25T08:10:12;99875.22;;;21.03;36.89
19150;BME280;9707;49.158;8.632;2023-04-25T08:12:37;99877.78;;;21.05;36.90
19150;BME280;9707;49.158;8.632;2023-04-25T08:15:04;99874.06;;;21.06;36.43
19150;BME280;9707;49.158;8.632;2023-04-25T08:17:30;99883.94;;;21.07;36.29
19150;BME280;9707;49.158;8.632;2023-04-25T08:19:55;99891.19;;;21.06;35.97
19150;BME280;9707;49.158;8.632;2023-04-25T08:22:22;99899.44;;;21.05;36.16
19150;BME280;9707;49.158;8.632;2023-04-25T08:24:47;99912.16;;;21.04;36.32
19150;BME280;9707;49.158;8.632;2023-04-25T08:27:12;99918.41;;;21.05;35.71
19150;BME280;9707;49.158;8.632;2023-04-25T08:29:38;99923.13;;;21.03;35.64
19150;BME280;9707;49.158;8.632;2023-04-25T08:32:03;99934.78;;;21.03;36.26
19150;BME280;9707;49.158;8.632;2023-04-25T08:34:28;99945.63;;;21.03;36.30
19150;BME280;9707;49.158;8.632;2023-04-25T08:36:53;99933.06;;;21.02;36.71
19150;BME280;9707;49.158;8.632;2023-04-25T08:39:19;99937.50;;;21.03;36.35
19150;BME280;9707;49.158;8.632;2023-04-25T08:41:46;99938.50;;;21.02;35.54
19150;BME280;9707;49.158;8.632;2023-04-25T08:44:11;99952.16;;;21.01;35.80
19150;BME280;9707;49.158;8.632;2023-04-25T08:46:40;99942.34;;;21.00;35.64
19150;BME280;9707;49.158;8.632;2023-04-25T08:49:07;99949.63;;;20.99;35.63
19150;BME280;9707;49.158;8.632;2023-04-25T08:51:32;99952.44;;;20.98;34.98
19150;BME280;9707;49.158;8.632;2023-04-25T08:54:10;99959.56;;;20.99;35.65
19150;BME280;9707;49.158;8.632;2023-04-25T08:56:36;99967.84;;;20.97;34.72
19150;BME280;9707;49.158;8.632;2023-04-25T08:59:02;99965.25;;;20.96;34.38
19150;BME280;9707;49.158;8.632;2023-04-25T09:01:27;99965.53;;;20.93;34.68
19150;BME280;9707;49.158;8.632;2023-04-25T09:03:53;99968.38;;;20.91;34.99
19150;BME280;9707;49.158;8.632;2023-04-25T09:06:19;99978.34;;;20.91;35.45
19150;BME280;9707;49.158;8.632;2023-04-25T09:08:44;99974.78;;;20.90;34.92
19150;BME280;9707;49.158;8.632;2023-04-25T09:11:10;99975.63;;;20.91;35.00
19150;BME280;9707;49.158;8.632;2023-04-25T09:13:35;99976.63;;;20.90;35.46
19150;BME280;9707;49.158;8.632;2023-04-25T09:16:01;99988.19;;;20.92;35.30
19150;BME280;9707;49.158;8.632;2023-04-25T09:18:34;99998.03;;;20.93;35.18
19150;BME280;9707;49.158;8.632;2023-04-25T09:21:07;99994.31;;;20.94;35.37
19150;BME280;9707;49.158;8.632;2023-04-25T09:23:48;99997.03;;;20.94;34.67
19150;BME280;9707;49.158;8.632;2023-04-25T09:26:19;99996.31;;;20.92;34.78
19150;BME280;9707;49.158;8.632;2023-04-25T09:28:45;100007.16;;;20.92;35.16
19150;BME280;9707;49.158;8.632;2023-04-25T09:31:11;99998.88;;;20.93;34.90
19150;BME280;9707;49.158;8.632;2023-04-25T09:33:37;100010.56;;;20.94;35.42
19150;BME280;9707;49.158;8.632;2023-04-25T09:36:07;100006.75;;;20.96;35.14
19150;BME280;9707;49.158;8.632;2023-04-25T09:38:45;100011.91;;;20.99;35.17
19150;BME280;9707;49.158;8.632;2023-04-25T09:41:11;100010.78;;;21.02;35.44
19150;BME280;9707;49.158;8.632;2023-04-25T09:43:37;100008.66;;;21.05;34.90
19150;BME280;9707;49.158;8.632;2023-04-25T09:46:08;100024.03;;;21.05;35.48
19150;BME280;9707;49.158;8.632;2023-04-25T09:48:33;100028.31;;;21.07;34.57
19150;BME280;9707;49.158;8.632;2023-04-25T09:51:08;100039.16;;;21.07;34.98
19150;BME280;9707;49.158;8.632;2023-04-25T09:53:36;100032.72;;;21.08;33.88
19150;BME280;9707;49.158;8.632;2023-04-25T09:56:04;100030.91;;;21.09;34.25
19150;BME280;9707;49.158;8.632;2023-04-25T09:58:30;100038.03;;;21.10;33.76
19150;BME280;9707;49.158;8.632;2023-04-25T10:01:00;100048.03;;;21.09;33.36
19150;BME280;9707;49.158;8.632;2023-04-25T10:03:26;100044.56;;;21.07;33.12
19150;BME280;9707;49.158;8.632;2023-04-25T10:05:52;100040.28;;;21.05;34.01
19150;BME280;9707;49.158;8.632;2023-04-25T10:08:19;100039.44;;;21.04;34.46
19150;BME280;9707;49.158;8.632;2023-04-25T10:10:46;100035.72;;;21.05;34.44
19150;BME280;9707;49.158;8.632;2023-04-25T10:13:12;100044.56;;;21.07;34.55
19150;BME280;9707;49.158;8.632;2023-04-25T10:15:40;100041.72;;;21.09;34.32
19150;BME280;9707;49.158;8.632;2023-04-25T10:18:06;100049.72;;;21.10;33.48
19150;BME280;9707;49.158;8.632;2023-04-25T10:20:32;100046.16;;;21.10;33.05
19150;BME280;9707;49.158;8.632;2023-04-25T10:23:06;100052.56;;;21.09;33.28
19150;BME280;9707;49.158;8.632;2023-04-25T10:25:35;100056.97;;;21.10;33.40
19150;BME280;9707;49.158;8.632;2023-04-25T10:28:03;100055.84;;;21.12;33.93
19150;BME280;9707;49.158;8.632;2023-04-25T10:30:28;100051.78;;;21.18;34.32
19150;BME280;9707;49.158;8.632;2023-04-25T10:32:55;100064.03;;;21.22;34.24
19150;BME280;9707;49.158;8.632;2023-04-25T10:35:38;100062.06;;;21.24;33.97
19150;BME280;9707;49.158;8.632;2023-04-25T10:38:11;100061.78;;;21.27;34.38
19150;BME280;9707;49.158;8.632;2023-04-25T10:40:38;100063.34;;;21.29;34.47
19150;BME280;9707;49.158;8.632;2023-04-25T10:49:02;100070.91;;;21.26;33.85
19150;BME280;9707;49.158;8.632;2023-04-25T10:56:35;100081.47;;;21.29;33.82
19150;BME280;9707;49.158;8.632;2023-04-25T10:59:15;100086.03;;;21.28;33.56
19150;BME280;9707;49.158;8.632;2023-04-25T11:01:42;100079.47;;;21.31;33.53
19150;BME280;9707;49.158;8.632;2023-04-25T11:04:24;100074.06;;;21.31;33.42
19150;BME280;9707;49.158;8.632;2023-04-25T11:06:58;100080.34;;;21.31;33.60
19150;BME280;9707;49.158;8.632;2023-04-25T11:09:26;100088.34;;;21.33;33.59
19150;BME280;9707;49.158;8.632;2023-04-25T11:11:55;100082.78;;;21.34;33.44
19150;BME280;9707;49.158;8.632;2023-04-25T11:14:21;100093.50;;;21.36;33.19
19150;BME280;9707;49.158;8.632;2023-04-25T11:16:47;100082.66;;;21.36;33.44
19150;BME280;9707;49.158;8.632;2023-04-25T11:19:12;100087.94;;;21.37;34.12
19150;BME280;9707;49.158;8.632;2023-04-25T11:21:37;100098.34;;;21.42;34.22
19150;BME280;9707;49.158;8.632;2023-04-25T11:24:03;100090.09;;;21.43;33.95
19150;BME280;9707;49.158;8.632;2023-04-25T11:26:29;100099.81;;;21.46;33.98
19150;BME280;9707;49.158;8.632;2023-04-25T11:28:59;100093.28;;;21.48;34.10
19150;BME280;9707;49.158;8.632;2023-04-25T11:31:25;100087.72;;;21.50;33.97
19150;BME280;9707;49.158;8.632;2023-04-25T11:33:53;100093.13;;;21.50;34.59
19150;BME280;9707;49.158;8.632;2023-04-25T11:36:19;100090.31;;;21.51;33.99
19150;BME280;9707;49.158;8.632;2023-04-25T11:38:44;100106.28;;;21.54;33.95
19150;BME280;9707;49.158;8.632;2023-04-25T11:41:10;100104.44;;;21.55;33.37
19150;BME280;9707;49.158;8.632;2023-04-25T11:43:36;100099.28;;;21.52;33.68
19150;BME280;9707;49.158;8.632;2023-04-25T11:46:06;100114.69;;;21.51;33.91
19150;BME280;9707;49.158;8.632;2023-04-25T11:48:39;100110.97;;;21.52;34.49
19150;BME280;9707;49.158;8.632;2023-04-25T11:51:05;100110.09;;;21.52;33.82
19150;BME280;9707;49.158;8.632;2023-04-25T11:53:30;100109.41;;;21.50;34.74
19150;BME280;9707;49.158;8.632;2023-04-25T11:55:56;100121.13;;;21.50;35.01
19150;BME280;9707;49.158;8.632;2023-04-25T11:58:21;100119.38;;;21.49;34.98
19150;BME280;9707;49.158;8.632;2023-04-25T12:00:47;100119.25;;;21.51;35.09
19150;BME280;9707;49.158;8.632;2023-04-25T12:03:12;100119.97;;;21.53;34.98
19150;BME280;9707;49.158;8.632;2023-04-25T12:05:37;100127.13;;;21.54;34.94
19150;BME280;9707;49.158;8.632;2023-04-25T12:08:15;100129.81;;;21.54;34.68
19150;BME280;9707;49.158;8.632;2023-04-25T12:10:43;100127.97;;;21.54;34.65
19150;BME280;9707;49.158;8.632;2023-04-25T12:13:25;100129.81;;;21.54;35.32
19150;BME280;9707;49.158;8.632;2023-04-25T12:15:54;100122.41;;;21.56;35.30
19150;BME280;9707;49.158;8.632;2023-04-25T12:18:23;100131.28;;;21.58;34.98
19150;BME280;9707;49.158;8.632;2023-04-25T12:20:49;100131.00;;;21.61;34.89
19150;BME280;9707;49.158;8.632;2023-04-25T12:23:14;100117.44;;;21.61;35.24
19150;BME280;9707;49.158;8.632;2023-04-25T12:25:43;100118.19;;;21.63;35.80
19150;BME280;9707;49.158;8.632;2023-04-25T12:33:20;100121.47;;;21.66;33.59
19150;BME280;9707;49.158;8.632;2023-04-25T12:35:45;100121.59;;;21.65;34.26
19150;BME280;9707;49.158;8.632;2023-04-25T12:38:11;100130.72;;;21.64;34.56
19150;BME280;9707;49.158;8.632;2023-04-25T12:40:36;100123.59;;;21.63;33.25
19150;BME280;9707;49.158;8.632;2023-04-25T12:43:01;100123.84;;;21.60;32.53
19150;BME280;9707;49.158;8.632;2023-04-25T12:45:26;100126.69;;;21.58;33.34
19150;BME280;9707;49.158;8.632;2023-04-25T12:47:52;100137.41;;;21.60;33.77
19150;BME280;9707;49.158;8.632;2023-04-25T12:50:17;100138.13;;;21.62;33.82
19150;BME280;9707;49.158;8.632;2023-04-25T12:52:42;100134.44;;;21.63;33.42
19150;BME280;9707;49.158;8.632;2023-04-25T12:55:08;100138.88;;;21.64;33.13
19150;BME280;9707;49.158;8.632;2023-04-25T12:57:33;100139.56;;;21.66;33.75
19150;BME280;9707;49.158;8.632;2023-04-25T12:59:58;100142.16;;;21.67;34.56
19150;BME280;9707;49.158;8.632;2023-04-25T13:02:23;100148.19;;;21.71;34.91
19150;BME280;9707;49.158;8.632;2023-04-25T13:04:49;100153.50;;;21.72;34.08
19150;BME280;9707;49.158;8.632;2023-04-25T13:07:14;100152.50;;;21.73;34.15
19150;BME280;9707;49.158;8.632;2023-04-25T13:09:40;100157.66;;;21.76;34.25
19150;BME280;9707;49.158;8.632;2023-04-25T13:12:05;100150.22;;;21.78;34.44
19150;BME280;9707;49.158;8.632;2023-04-25T13:14:31;100147.53;;;21.78;34.19
19150;BME280;9707;49.158;8.632;2023-04-25T13:16:56;100149.41;;;21.78;34.04
19150;BME280;9707;49.158;8.632;2023-04-25T13:19:21;100146.69;;;21.78;34.12
19150;BME280;9707;49.158;8.632;2023-04-25T13:21:46;100145.81;;;21.77;33.98
19150;BME280;9707;49.158;8.632;2023-04-25T13:24:12;100140.25;;;21.79;33.84
19150;BME280;9707;49.158;8.632;2023-04-25T13:26:37;100145.69;;;21.79;33.80
19150;BME280;9707;49.158;8.632;2023-04-25T13:29:02;100143.69;;;21.81;33.71
19150;BME280;9707;49.158;8.632;2023-04-25T13:31:29;100152.56;;;21.83;34.21
19150;BME280;9707;49.158;8.632;2023-04-25T13:33:54;100155.84;;;21.86;33.14
19150;BME280;9707;49.158;8.632;2023-04-25T13:36:19;100159.41;;;21.87;32.52
19150;BME280;9707;49.158;8.632;2023-04-25T13:38:45;100150.44;;;21.86;31.28
19150;BME280;9707;49.158;8.632;2023-04-25T13:41:12;100161.41;;;21.85;32.94
19150;BME280;9707;49.158;8.632;2023-04-25T13:43:42;100147.97;;;21.83;33.26
19150;BME280;9707;49.158;8.632;2023-04-25T13:46:07;100157.97;;;21.83;33.55
19150;BME280;9707;49.158;8.632;2023-04-25T13:48:33;100152.56;;;21.83;32.32
19150;BME280;9707;49.158;8.632;2023-04-25T13:50:58;100149.09;;;21.81;32.16
19150;BME280;9707;49.158;8.632;2023-04-25T13:53:24;100143.69;;;21.81;31.65
19150;BME280;9707;49.158;8.632;2023-04-25T13:55:49;100153.69;;;21.80;31.89
19150;BME280;9707;49.158;8.632;2023-04-25T13:58:15;100149.97;;;21.81;31.68
19150;BME280;9707;49.158;8.632;2023-04-25T14:00:40;100159.94;;;21.81;30.81
19150;BME280;9707;49.158;8.632;2023-04-25T14:03:08;100149.09;;;21.81;31.10
19150;BME280;9707;49.158;8.632;2023-04-25T14:05:35;100150.81;;;21.82;31.40
19150;BME280;9707;49.158;8.632;2023-04-25T14:08:08;100155.28;;;21.83;31.05
19150;BME280;9707;49.158;8.632;2023-04-25T14:10:34;100151.69;;;21.82;30.90
19150;BME280;9707;49.158;8.632;2023-04-25T14:13:00;100153.41;;;21.83;30.96
19150;BME280;9707;49.158;8.632;2023-04-25T14:15:26;100162.41;;;21.84;30.39
19150;BME280;9707;49.158;8.632;2023-04-25T14:17:51;100151.56;;;21.84;29.77
19150;BME280;9707;49.158;8.632;2023-04-25T14:20:17;100153.53;;;21.82;29.58
19150;BME280;9707;49.158;8.632;2023-04-25T14:22:45;100154.53;;;21.81;29.19
19150;BME280;9707;49.158;8.632;2023-04-25T14:25:11;100159.09;;;21.80;29.25
19150;BME280;9707;49.158;8.632;2023-04-25T14:27:36;100158.25;;;21.80;29.13
19150;BME280;9707;49.158;8.632;2023-04-25T14:30:01;100157.38;;;21.79;29.17
19150;BME280;9707;49.158;8.632;2023-04-25T14:32:27;100158.25;;;21.80;28.85
19150;BME280;9707;49.158;8.632;2023-04-25T14:34:52;100160.06;;;21.79;28.79
19150;BME280;9707;49.158;8.632;2023-04-25T14:37:17;100159.25;;;21.79;28.91
19150;BME280;9707;49.158;8.632;2023-04-25T14:39:42;100159.25;;;21.79;28.97
19150;BME280;9707;49.158;8.632;2023-04-25T14:42:08;100164.66;;;21.79;29.64
19150;BME280;9707;49.158;8.632;2023-04-25T14:44:33;100160.81;;;21.81;30.03
19150;BME280;9707;49.158;8.632;2023-04-25T14:46:58;100157.97;;;21.83;29.68
19150;BME280;9707;49.158;8.632;2023-04-25T14:49:24;100161.41;;;21.85;29.76
19150;BME280;9707;49.158;8.632;2023-04-25T14:51:49;100153.97;;;21.87;29.01
19150;BME280;9707;49.158;8.632;2023-04-25T14:54:15;100165.81;;;21.86;28.33
19150;BME280;9707;49.158;8.632;2023-04-25T14:56:40;100161.41;;;21.85;27.99
19150;BME280;9707;49.158;8.632;2023-04-25T14:59:06;100157.25;;;21.81;28.51
19150;BME280;9707;49.158;8.632;2023-04-25T15:01:31;100165.38;;;21.81;29.15
19150;BME280;9707;49.158;8.632;2023-04-25T15:03:57;100160.53;;;21.84;29.33
19150;BME280;9707;49.158;8.632;2023-04-25T15:06:22;100167.69;;;21.85;28.85
19150;BME280;9707;49.158;8.632;2023-04-25T15:08:47;100174.09;;;21.84;28.59
19150;BME280;9707;49.158;8.632;2023-04-25T15:11:13;100169.78;;;21.82;28.24
19150;BME280;9707;49.158;8.632;2023-04-25T15:13:38;100169.22;;;21.78;28.46
19150;BME280;9707;49.158;8.632;2023-04-25T15:16:04;100164.78;;;21.77;28.41
19150;BME280;9707;49.158;8.632;2023-04-25T15:18:29;100160.50;;;21.75;28.91
19150;BME280;9707;49.158;8.632;2023-04-25T15:20:54;100171.34;;;21.75;28.80
19150;BME280;9707;49.158;8.632;2023-04-25T15:23:20;100174.06;;;21.75;28.80
19150;BME280;9707;49.158;8.632;2023-04-25T15:25:46;100180.47;;;21.74;28.27
19150;BME280;9707;49.158;8.632;2023-04-25T15:28:12;100189.88;;;21.70;28.15
19150;BME280;9707;49.158;8.632;2023-04-25T15:30:40;100190.97;;;21.67;28.47
19150;BME280;9707;49.158;8.632;2023-04-25T15:33:05;100190.09;;;21.67;28.52
19150;BME280;9707;49.158;8.632;2023-04-25T15:35:30;100193.78;;;21.66;28.28
19150;BME280;9707;49.158;8.632;2023-04-25T15:37:56;100192.09;;;21.65;27.97
19150;BME280;9707;49.158;8.632;2023-04-25T15:40:21;100200.34;;;21.63;28.03
19150;BME280;9707;49.158;8.632;2023-04-25T15:42:51;100205.88;;;21.62;28.43
19150;BME280;9707;49.158;8.632;2023-04-25T15:45:18;100210.34;;;21.63;28.97
19150;BME280;9707;49.158;8.632;2023-04-25T15:47:44;100214.03;;;21.62;28.74
19150;BME280;9707;49.158;8.632;2023-04-25T15:50:10;100216.03;;;21.60;29.26
19150;BME280;9707;49.158;8.632;2023-04-25T15:52:36;100216.03;;;21.60;29.11
19150;BME280;9707;49.158;8.632;2023-04-25T15:55:03;100215.31;;;21.58;29.13
19150;BME280;9707;49.158;8.632;2023-04-25T15:57:35;100221.84;;;21.55;29.26
19150;BME280;9707;49.158;8.632;2023-04-25T16:00:04;100219.28;;;21.54;29.84
19150;BME280;9707;49.158;8.632;2023-04-25T16:02:35;100231.09;;;21.53;29.73
19150;BME280;9707;49.158;8.632;2023-04-25T16:05:00;100228.66;;;21.50;30.63
19150;BME280;9707;49.158;8.632;2023-04-25T16:07:25;100231.34;;;21.50;30.87
19150;BME280;9707;49.158;8.632;2023-04-25T16:09:51;100232.47;;;21.47;31.05
19150;BME280;9707;49.158;8.632;2023-04-25T16:12:16;100234.31;;;21.47;31.24
19150;BME280;9707;49.158;8.632;2023-04-25T16:14:41;100238.03;;;21.46;31.81
19150;BME280;9707;49.158;8.632;2023-04-25T16:17:07;100242.59;;;21.45;32.47
19150;BME280;9707;49.158;8.632;2023-04-25T16:19:32;100244.44;;;21.45;32.65
19150;BME280;9707;49.158;8.632;2023-04-25T16:21:57;100241.72;;;21.45;32.79
19150;BME280;9707;49.158;8.632;2023-04-25T16:24:22;100255.41;;;21.43;33.14
19150;BME280;9707;49.158;8.632;2023-04-25T16:26:48;100252.81;;;21.42;33.69
19150;BME280;9707;49.158;8.632;2023-04-25T16:29:13;100250.13;;;21.42;33.78
19150;BME280;9707;49.158;8.632;2023-04-25T16:31:40;100250.28;;;21.40;33.91
19150;BME280;9707;49.158;8.632;2023-04-25T16:34:06;100258.53;;;21.39;33.90
19150;BME280;9707;49.158;8.632;2023-04-25T16:36:31;100259.53;;;21.38;34.22
19150;BME280;9707;49.158;8.632;2023-04-25T16:38:57;100266.91;;;21.36;34.45
19150;BME280;9707;49.158;8.632;2023-04-25T16:41:25;100271.47;;;21.35;34.47
19150;BME280;9707;49.158;8.632;2023-04-25T16:43:50;100263.19;;;21.37;34.71
19150;BME280;9707;49.158;8.632;2023-04-25T16:46:16;100264.94;;;21.38;34.45
19150;BME280;9707;49.158;8.632;2023-04-25T16:48:44;100263.06;;;21.38;34.48
19150;BME280;9707;49.158;8.632;2023-04-25T16:51:09;100265.66;;;21.40;34.56
19150;BME280;9707;49.158;8.632;2023-04-25T16:53:34;100262.94;;;21.40;34.54
19150;BME280;9707;49.158;8.632;2023-04-25T16:56:00;100263.81;;;21.40;34.41
19150;BME280;9707;49.158;8.632;2023-04-25T16:58:25;100268.38;;;21.40;34.32
19150;BME280;9707;49.158;8.632;2023-04-25T17:00:52;100266.38;;;21.42;34.32
19150;BME280;9707;49.158;8.632;2023-04-25T17:03:17;100270.06;;;21.41;34.47
19150;BME280;9707;49.158;8.632;2023-04-25T17:05:43;100271.78;;;21.42;34.33
19150;BME280;9707;49.158;8.632;2023-04-25T17:08:08;100270.94;;;21.41;34.37
19150;BME280;9707;49.158;8.632;2023-04-25T17:10:33;100268.38;;;21.40;34.27
19150;BME280;9707;49.158;8.632;2023-04-25T17:12:58;100265.53;;;21.41;34.40
19150;BME280;9707;49.158;8.632;2023-04-25T17:15:24;100268.13;;;21.43;34.57
19150;BME280;9707;49.158;8.632;2023-04-25T17:17:49;100264.41;;;21.44;34.33
19150;BME280;9707;49.158;8.632;2023-04-25T17:20:14;100279.78;;;21.43;34.28
19150;BME280;9707;49.158;8.632;2023-04-25T17:22:40;100281.50;;;21.44;34.34
19150;BME280;9707;49.158;8.632;2023-04-25T17:25:06;100282.38;;;21.45;34.39
19150;BME280;9707;49.158;8.632;2023-04-25T17:27:33;100291.38;;;21.45;34.42
19150;BME280;9707;49.158;8.632;2023-04-25T17:29:58;100295.94;;;21.45;34.48
19150;BME280;9707;49.158;8.632;2023-04-25T17:32:24;100302.22;;;21.45;34.25
19150;BME280;9707;49.158;8.632;2023-04-25T17:34:50;100294.09;;;21.45;34.31
19150;BME280;9707;49.158;8.632;2023-04-25T17:37:16;100304.94;;;21.45;34.44
19150;BME280;9707;49.158;8.632;2023-04-25T17:39:43;100304.94;;;21.45;34.10
19150;BME280;9707;49.158;8.632;2023-04-25T17:42:09;100312.19;;;21.45;34.58
19150;BME280;9707;49.158;8.632;2023-04-25T17:44:34;100308.63;;;21.44;34.43
19150;BME280;9707;49.158;8.632;2023-04-25T17:47:00;100305.06;;;21.44;34.55
19150;BME280;9707;49.158;8.632;2023-04-25T17:49:26;100302.34;;;21.44;34.50
19150;BME280;9707;49.158;8.632;2023-04-25T17:51:51;100297.94;;;21.43;34.45
19150;BME280;9707;49.158;8.632;2023-04-25T17:54:17;100293.47;;;21.42;34.80
19150;BME280;9707;49.158;8.632;2023-04-25T17:56:42;100301.59;;;21.42;34.69
19150;BME280;9707;49.158;8.632;2023-04-25T17:59:09;100309.72;;;21.42;34.85
19150;BME280;9707;49.158;8.632;2023-04-25T18:01:35;100315.16;;;21.42;34.87
19150;BME280;9707;49.158;8.632;2023-04-25T18:04:00;100315.16;;;21.42;35.00
19150;BME280;9707;49.158;8.632;2023-04-25T18:06:28;100318.84;;;21.41;34.93
19150;BME280;9707;49.158;8.632;2023-04-25T18:08:53;100318.00;;;21.40;34.88
19150;BME280;9707;49.158;8.632;2023-04-25T18:11:19;100325.28;;;21.40;34.61
19150;BME280;9707;49.158;8.632;2023-04-25T18:13:44;100327.97;;;21.40;34.62
19150;BME280;9707;49.158;8.632;2023-04-25T18:16:09;100326.38;;;21.37;34.69
19150;BME280;9707;49.158;8.632;2023-04-25T18:18:35;100334.53;;;21.37;34.89
19150;BME280;9707;49.158;8.632;2023-04-25T18:21:02;100335.50;;;21.36;35.02
19150;BME280;9707;49.158;8.632;2023-04-25T18:23:29;100337.34;;;21.36;34.77
19150;BME280;9707;49.158;8.632;2023-04-25T18:25:56;100344.47;;;21.37;34.90
19150;BME280;9707;49.158;8.632;2023-04-25T18:28:21;100342.78;;;21.36;35.01
19150;BME280;9707;49.158;8.632;2023-04-25T18:30:47;100335.63;;;21.35;35.05
19150;BME280;9707;49.158;8.632;2023-04-25T18:33:14;100331.09;;;21.35;34.76
19150;BME280;9707;49.158;8.632;2023-04-25T18:35:39;100333.81;;;21.35;35.00
19150;BME280;9707;49.158;8.632;2023-04-25T18:38:04;100340.19;;;21.34;34.93
19150;BME280;9707;49.158;8.632;2023-04-25T18:40:30;100344.75;;;21.34;34.94
19150;BME280;9707;49.158;8.632;2023-04-25T18:42:55;100344.75;;;21.34;35.12
19150;BME280;9707;49.158;8.632;2023-04-25T18:45:21;100354.72;;;21.33;34.98
19150;BME280;9707;49.158;8.632;2023-04-25T18:47:46;100359.31;;;21.33;34.94
19150;BME280;9707;49.158;8.632;2023-04-25T18:50:12;100362.97;;;21.32;34.98
19150;BME280;9707;49.158;8.632;2023-04-25T18:52:37;100373.81;;;21.32;35.14
19150;BME280;9707;49.158;8.632;2023-04-25T18:55:03;100374.81;;;21.31;35.18
19150;BME280;9707;49.158;8.632;2023-04-25T18:57:29;100383.94;;;21.30;35.01
19150;BME280;9707;49.158;8.632;2023-04-25T18:59:57;100387.63;;;21.29;35.03
19150;BME280;9707;49.158;8.632;2023-04-25T19:02:22;100393.06;;;21.29;35.10
19150;BME280;9707;49.158;8.632;2023-04-25T19:04:48;100393.06;;;21.29;35.03
19150;BME280;9707;49.158;8.632;2023-04-25T19:07:13;100394.88;;;21.28;35.05
19150;BME280;9707;49.158;8.632;2023-04-25T19:09:39;100400.31;;;21.28;35.24
19150;BME280;9707;49.158;8.632;2023-04-25T19:12:04;100404.00;;;21.27;35.04
19150;BME280;9707;49.158;8.632;2023-04-25T19:14:30;100401.41;;;21.26;35.23
19150;BME280;9707;49.158;8.632;2023-04-25T19:16:56;100396.00;;;21.26;35.28
19150;BME280;9707;49.158;8.632;2023-04-25T19:19:23;100397.00;;;21.25;35.16